Time;durP1;ratioP1;P1;durP2;ratioP2;P2;SDS_P1;SDS_P2;PMS_P1;PMS_P2;Temp;Humidity;BMP_temperature;BMP_pressure;BME280_temperature;BME280_humidity;BME280_pressure;Samples;Min_cycle;Max_cycle;Signal;HPM_P1;HPM_P2
2023/09/20 00:01:28;;;;;;;3.40;1.90;;;;;;;17.35;75.61;98594.23;105796;1257;61119;-23
2023/09/20 00:03:55;;;;;;;4.10;2.30;;;;;;;17.88;74.09;98596.45;105795;1256;73796;-23
2023/09/20 00:06:22;;;;;;;3.40;2.30;;;;;;;17.96;73.28;98597.56;105631;1254;74253;-23
2023/09/20 00:08:49;;;;;;;2.80;2.60;;;;;;;17.77;73.72;98599.70;105653;1254;73000;-23
2023/09/20 00:11:18;;;;;;;4.40;2.60;;;;;;;17.55;74.15;98598.13;105821;1252;61150;-23
2023/09/20 00:13:46;;;;;;;3.00;2.60;;;;;;;17.29;75.56;98601.05;105834;1251;61628;-23
2023/09/20 00:16:13;;;;;;;4.20;3.00;;;;;;;17.06;76.27;98599.55;105832;1250;74029;-23
2023/09/20 00:18:40;;;;;;;3.30;1.80;;;;;;;16.88;77.03;98601.42;105885;1255;74346;-23
2023/09/20 00:21:08;;;;;;;3.10;2.00;;;;;;;17.29;77.39;98601.66;105693;1254;72607;-22
2023/09/20 00:23:35;;;;;;;6.90;2.30;;;;;;;17.79;75.81;98599.48;105641;1256;61142;-23
2023/09/20 00:26:03;;;;;;;4.60;2.50;;;;;;;17.85;74.95;98602.41;105669;1255;61157;-23
2023/09/20 00:28:31;;;;;;;4.20;2.80;;;;;;;17.69;74.93;98595.96;105559;1250;75160;-23
2023/09/20 00:30:58;;;;;;;5.20;2.80;;;;;;;17.44;75.53;98598.13;105652;1259;74322;-23
2023/09/20 00:33:27;;;;;;;3.70;3.10;;;;;;;17.17;76.52;98600.86;105716;1251;71489;-23
2023/09/20 00:35:54;;;;;;;3.10;1.70;;;;;;;16.97;77.15;98597.18;105529;1258;61762;-23
2023/09/20 00:38:21;;;;;;;3.50;2.00;;;;;;;17.33;77.78;98599.75;105754;1256;61052;-23
2023/09/20 00:40:48;;;;;;;6.50;2.40;;;;;;;17.79;76.28;98601.93;105868;1254;72698;-23
2023/09/20 00:43:25;;;;;;;3.20;2.90;;;;;;;17.80;75.58;98597.84;105702;1256;74513;-23
2023/09/20 00:45:51;;;;;;;5.10;2.60;;;;;;;17.57;76.10;98597.70;105558;1257;71111;-23
2023/09/20 00:48:19;;;;;;;5.70;2.80;;;;;;;17.33;76.47;98598.58;105625;1257;61222;-23
2023/09/20 00:50:46;;;;;;;4.60;3.00;;;;;;;17.07;77.42;98596.65;105696;1255;61129;-24
2023/09/20 00:53:14;;;;;;;5.60;2.20;;;;;;;16.87;78.45;98597.11;105763;1256;73774;-23
2023/09/20 00:55:44;;;;;;;3.10;2.20;;;;;;;17.24;78.35;98599.58;105605;1259;74348;-23
2023/09/20 00:58:14;;;;;;;4.50;2.70;;;;;;;17.70;76.77;98596.82;105537;1255;72694;-24
2023/09/20 01:00:43;;;;;;;3.10;2.40;;;;;;;17.69;76.37;98598.67;105609;1254;61230;-24
2023/09/20 01:03:11;;;;;;;3.80;2.80;;;;;;;17.51;76.44;98595.07;105577;1259;61167;-24
2023/09/20 01:05:39;;;;;;;4.40;2.70;;;;;;;17.26;77.18;98597.23;105753;1259;73597;-24
2023/09/20 01:08:07;;;;;;;7.00;3.10;;;;;;;17.04;78.12;98596.11;105796;1259;74290;-25
2023/09/20 01:10:37;;;;;;;3.20;2.10;;;;;;;16.85;78.65;98599.14;105565;1253;72451;-24
2023/09/20 01:13:09;;;;;;;4.30;2.20;;;;;;;17.27;79.37;98599.41;105409;1259;61167;-24
2023/09/20 01:15:37;;;;;;;4.40;2.50;;;;;;;17.77;77.34;98597.96;105334;1260;61181;-24
2023/09/20 01:18:05;;;;;;;5.70;2.90;;;;;;;17.77;76.68;98597.92;105791;1256;73558;-24
2023/09/20 01:20:34;;;;;;;6.30;3.40;;;;;;;17.59;76.73;98596.36;105676;1251;72990;-24
2023/09/20 01:23:01;;;;;;;4.40;3.00;;;;;;;17.35;77.34;98597.92;105505;1253;72704;-24
2023/09/20 01:25:30;;;;;;;8.80;3.70;;;;;;;17.13;78.24;98596.83;105598;1254;61200;-24
2023/09/20 01:27:58;;;;;;;3.80;2.80;;;;;;;16.92;79.55;98597.25;105416;1258;61161;-24
2023/09/20 01:30:27;;;;;;;3.60;2.40;;;;;;;17.23;79.88;98597.41;105442;1259;72862;-24
2023/09/20 01:33:03;;;;;;;10.00;3.50;;;;;;;17.64;78.17;98601.12;105554;1260;74330;-24
2023/09/20 01:35:30;;;;;;;7.10;3.40;;;;;;;17.58;77.76;98602.27;105763;1256;71338;-24
2023/09/20 01:37:58;;;;;;;9.30;4.20;;;;;;;17.38;78.30;98603.59;105499;1256;61130;-24
2023/09/20 01:40:26;;;;;;;6.70;3.70;;;;;;;17.12;79.29;98606.53;105861;1259;61161;-24
2023/09/20 01:42:53;;;;;;;11.70;3.50;;;;;;;16.84;81.11;98604.86;105866;1256;73655;-24
2023/09/20 01:45:21;;;;;;;9.90;3.90;;;;;;;17.05;81.55;98603.47;105884;1259;74322;-24
2023/09/20 01:47:49;;;;;;;8.80;4.10;;;;;;;17.18;80.53;98604.96;105753;1251;72564;-24
2023/09/20 01:50:20;;;;;;;10.30;4.30;;;;;;;17.06;80.87;98600.94;105865;1257;61103;-24
2023/09/20 01:52:49;;;;;;;10.30;4.50;;;;;;;16.92;81.52;98598.52;105615;1257;61301;-24
2023/09/20 01:55:18;;;;;;;7.00;3.40;;;;;;;16.78;82.29;98602.19;105555;1258;72567;-24
2023/09/20 01:57:45;;;;;;;8.50;3.50;;;;;;;17.02;82.16;98599.02;105564;1259;74232;-24
2023/09/20 02:00:22;;;;;;;6.60;4.20;;;;;;;17.23;80.85;98597.83;105553;1254;72476;-24
2023/09/20 02:02:50;;;;;;;11.30;4.50;;;;;;;17.12;81.02;98599.24;105380;1257;61601;-24
2023/09/20 02:05:18;;;;;;;11.00;4.70;;;;;;;16.88;81.74;98597.46;105736;1251;61008;-24
2023/09/20 02:07:46;;;;;;;6.80;3.30;;;;;;;16.76;82.89;98597.42;105747;1256;74339;-24
2023/09/20 02:10:14;;;;;;;6.00;3.50;;;;;;;17.15;82.24;98594.70;105527;1251;74495;-24
2023/09/20 02:12:49;;;;;;;7.70;4.00;;;;;;;17.46;80.94;98595.81;105358;1256;71537;-24
2023/09/20 02:15:17;;;;;;;7.00;4.40;;;;;;;17.46;80.27;98596.05;105538;1253;61014;-24
2023/09/20 02:17:45;;;;;;;9.90;4.70;;;;;;;17.14;81.76;98600.41;105768;1266;61143;-24
2023/09/20 02:20:19;;;;;;;5.60;3.00;;;;;;;16.86;83.13;98600.90;105769;1258;72302;-24
2023/09/20 02:22:47;;;;;;;6.50;4.00;;;;;;;16.90;83.73;98601.30;105750;1260;74118;-24
2023/09/20 02:25:14;;;;;;;10.00;4.60;;;;;;;17.17;82.83;98602.29;105726;1257;71251;-25
2023/09/20 02:27:42;;;;;;;7.20;4.00;;;;;;;17.22;82.22;98608.73;105524;1257;61565;-24
2023/09/20 02:30:16;;;;;;;9.70;4.90;;;;;;;17.01;83.41;98607.84;105574;1259;61284;-24
2023/09/20 02:32:43;;;;;;;6.90;3.70;;;;;;;16.84;84.56;98612.33;105491;1258;72604;-24
2023/09/20 02:35:11;;;;;;;6.10;4.10;;;;;;;17.05;84.31;98612.30;105546;1259;74289;-24
2023/09/20 02:37:41;;;;;;;10.00;5.00;;;;;;;17.17;84.11;98612.96;105632;1258;72587;-24
2023/09/20 02:40:13;;;;;;;8.90;4.70;;;;;;;17.24;83.71;98611.73;105567;1256;61583;-24
2023/09/20 02:42:42;;;;;;;6.60;4.10;;;;;;;17.01;84.51;98609.73;105603;1262;61257;-26
2023/09/20 02:45:11;;;;;;;9.10;4.80;;;;;;;16.76;86.29;98613.11;105659;1257;73844;-25
2023/09/20 02:47:39;;;;;;;7.30;4.60;;;;;;;16.96;86.46;98612.93;105614;1259;74377;-24
2023/09/20 02:50:08;;;;;;;8.60;5.50;;;;;;;17.09;86.11;98611.52;105352;1261;71313;-25
2023/09/20 02:52:36;;;;;;;9.20;5.30;;;;;;;16.90;86.79;98608.17;105426;1258;61208;-25
2023/09/20 02:55:06;;;;;;;6.80;3.90;;;;;;;16.70;88.56;98609.58;105613;1258;61090;-25
2023/09/20 02:57:37;;;;;;;8.10;5.20;;;;;;;17.00;88.01;98609.31;105513;1258;73697;-25
2023/09/20 03:00:15;;;;;;;7.00;5.50;;;;;;;17.08;86.85;98607.39;105819;1259;75549;-25
2023/09/20 03:02:46;;;;;;;8.70;5.50;;;;;;;16.96;87.52;98609.33;105647;1258;71519;-25
2023/09/20 03:05:21;;;;;;;7.70;4.30;;;;;;;16.72;88.74;98612.19;105727;1260;61780;-25
2023/09/20 03:07:50;;;;;;;;;;;;;;;16.88;89.24;98611.20;105774;1251;61023;-25
2023/09/20 03:10:21;;;;;;;8.60;5.20;;;;;;;17.04;88.03;98610.33;105942;1257;72396;-25
2023/09/20 03:12:52;;;;;;;13.40;5.90;;;;;;;16.98;87.73;98606.90;105642;1251;73089;-25
2023/09/20 03:15:21;;;;;;;4.30;3.20;;;;;;;16.89;87.76;98607.42;105588;1259;73133;-25
2023/09/20 03:17:50;;;;;;;7.40;4.00;;;;;;;17.29;86.95;98611.75;105386;1257;61068;-26
2023/09/20 03:20:26;;;;;;;7.60;4.40;;;;;;;17.69;85.08;98611.55;105626;1257;61106;-26
2023/09/20 03:23:05;;;;;;;10.70;5.70;;;;;;;17.42;85.24;98613.77;105759;1257;72727;-26
2023/09/20 03:25:36;;;;;;;9.20;5.50;;;;;;;17.14;86.55;98609.64;105517;1251;74057;-26
2023/09/20 03:28:08;;;;;;;5.90;4.10;;;;;;;17.00;87.23;98613.55;105623;1251;72553;-26
2023/09/20 03:30:38;;;;;;;8.30;5.60;;;;;;;17.28;86.77;98612.71;105634;1257;61206;-26
2023/09/20 03:33:07;;;;;;;11.40;5.90;;;;;;;17.39;86.06;98613.65;105927;1251;61150;-26
2023/09/20 03:35:34;;;;;;;6.40;5.20;;;;;;;17.23;86.74;98615.80;105730;1257;73822;-26
2023/09/20 03:38:03;;;;;;;8.10;4.50;;;;;;;17.08;87.02;98614.59;105645;1257;74900;-26
2023/09/20 03:40:30;;;;;;;7.40;4.10;;;;;;;17.05;88.10;98615.75;105674;1257;72666;-26
2023/09/20 03:43:03;;;;;;;8.00;5.30;;;;;;;17.56;86.74;98619.19;105547;1259;61148;-26
2023/09/20 03:45:31;;;;;;;8.50;5.40;;;;;;;17.70;85.22;98620.36;105676;1254;61092;-26
2023/09/20 03:48:01;;;;;;;7.60;5.80;;;;;;;17.46;85.79;98621.63;105666;1257;73826;-26
2023/09/20 03:50:29;;;;;;;10.10;6.40;;;;;;;17.19;87.01;98623.02;105940;1257;74191;-26
2023/09/20 03:52:56;;;;;;;8.80;4.10;;;;;;;17.03;88.26;98623.38;105892;1255;72666;-26
2023/09/20 03:55:24;;;;;;;7.10;4.70;;;;;;;17.49;87.54;98620.54;105765;1257;61203;-26
2023/09/20 03:57:51;;;;;;;7.30;5.20;;;;;;;17.88;85.47;98618.91;105652;1260;61257;-26
2023/09/20 04:00:27;;;;;;;10.70;5.80;;;;;;;17.87;84.91;98622.73;105949;1257;74222;-26
2023/09/20 04:02:56;;;;;;;9.90;5.30;;;;;;;17.66;85.24;98625.90;105563;1251;74129;-26
2023/09/20 04:05:24;;;;;;;8.50;6.10;;;;;;;17.36;86.46;98626.10;103335;1259;3074366;-26
2023/09/20 04:08:12;;;;;;;8.90;5.30;;;;;;;17.17;87.79;98629.48;105606;1254;61623;-26
2023/09/20 04:10:40;;;;;;;7.20;5.00;;;;;;;17.54;87.70;98630.67;105590;1259;61738;-26
2023/09/20 04:13:08;;;;;;;10.50;6.60;;;;;;;17.70;86.61;98633.02;105557;1258;73614;-27
2023/09/20 04:15:37;;;;;;;8.20;5.30;;;;;;;17.58;86.84;98632.70;105780;1257;74165;-27
2023/09/20 04:18:08;;;;;;;10.40;6.90;;;;;;;17.32;88.02;98636.58;105658;1259;72619;-26
2023/09/20 04:20:35;;;;;;;7.20;5.00;;;;;;;17.06;90.42;98639.73;105690;1251;61723;-27
2023/09/20 04:23:03;;;;;;;7.40;6.20;;;;;;;17.47;89.83;98641.30;105710;1251;61143;-26
2023/09/20 04:25:30;;;;;;;8.40;6.20;;;;;;;17.79;88.30;98646.03;105686;1260;72482;-27
2023/09/20 04:27:58;;;;;;;7.60;5.70;;;;;;;17.72;87.67;98647.15;105474;1252;74330;-27
2023/09/20 04:30:25;;;;;;;10.60;6.80;;;;;;;17.45;88.72;98647.90;105708;1256;72664;-27
2023/09/20 04:32:54;;;;;;;9.80;5.20;;;;;;;17.28;89.67;98650.35;105597;1257;61678;-27
2023/09/20 04:35:27;;;;;;;8.50;5.80;;;;;;;17.63;89.04;98649.79;105492;1261;61169;-28
2023/09/20 04:37:55;;;;;;;7.50;5.90;;;;;;;17.85;88.10;98647.58;105571;1257;73905;-26
2023/09/20 04:40:23;;;;;;;8.70;6.00;;;;;;;17.82;87.48;98648.06;105579;1257;74155;-27
2023/09/20 04:42:50;;;;;;;7.80;4.00;;;;;;;17.45;89.49;98652.02;105576;1252;73080;-26
2023/09/20 04:45:19;;;;;;;6.80;5.10;;;;;;;17.46;91.02;98658.96;105559;1255;61171;-27
2023/09/20 04:47:47;;;;;;;7.60;6.10;;;;;;;17.76;89.23;98657.23;105530;1258;61179;-27
2023/09/20 04:50:16;;;;;;;8.10;5.40;;;;;;;17.61;90.05;98662.98;105832;1256;73753;-26
2023/09/20 04:52:45;;;;;;;7.70;6.40;;;;;;;17.43;90.99;98660.02;105698;1258;74405;-27
2023/09/20 04:55:12;;;;;;;6.60;4.00;;;;;;;17.30;92.00;98663.99;105683;1254;72459;-26
2023/09/20 04:57:39;;;;;;;5.30;4.20;;;;;;;17.61;91.52;98667.41;105884;1251;61159;-27
2023/09/20 05:00:08;;;;;;;6.40;4.80;;;;;;;18.02;89.53;98668.63;105633;1258;61100;-27
2023/09/20 05:02:36;;;;;;;5.80;5.10;;;;;;;17.86;89.51;98672.79;105576;1257;72394;-26
2023/09/20 05:05:05;;;;;;;6.10;5.50;;;;;;;17.59;90.92;98673.05;105694;1251;74225;-26
2023/09/20 05:07:33;;;;;;;3.90;3.40;;;;;;;17.49;91.81;98676.48;105538;1252;70454;-27
2023/09/20 05:10:00;;;;;;;8.30;4.80;;;;;;;17.89;90.57;98675.73;105569;1255;61156;-27
2023/09/20 05:12:29;;;;;;;4.80;4.40;;;;;;;18.18;88.70;98677.24;105619;1256;61170;-26
2023/09/20 05:14:56;;;;;;;5.20;4.70;;;;;;;18.11;88.62;98681.42;105731;1251;73668;-26
2023/09/20 05:17:23;;;;;;;8.20;5.30;;;;;;;17.87;89.30;98679.59;105677;1254;74371;-26
2023/09/20 05:19:51;;;;;;;5.90;3.40;;;;;;;17.71;90.62;98683.14;105536;1254;72469;-26
2023/09/20 05:22:19;;;;;;;7.70;3.90;;;;;;;18.06;89.55;98683.58;105679;1251;61035;-26
2023/09/20 05:24:46;;;;;;;4.90;4.10;;;;;;;18.21;88.75;98687.83;105586;1258;61144;-26
2023/09/20 05:27:14;;;;;;;5.10;4.40;;;;;;;18.02;89.40;98687.38;105592;1251;73870;-27
2023/09/20 05:29:41;;;;;;;4.90;3.90;;;;;;;17.94;89.64;98688.50;105560;1251;74182;-26
2023/09/20 05:32:08;;;;;;;3.70;2.80;;;;;;;17.74;91.39;98694.33;105790;1251;72638;-26
2023/09/20 05:34:36;;;;;;;5.10;3.30;;;;;;;18.07;90.89;98689.63;105727;1251;61067;-26
2023/09/20 05:37:03;;;;;;;5.30;3.30;;;;;;;18.29;89.62;98690.43;105531;1256;61172;-26
2023/09/20 05:39:30;;;;;;;5.10;3.10;;;;;;;18.18;90.04;98690.67;105776;1255;73908;-27
2023/09/20 05:41:59;;;;;;;6.00;3.40;;;;;;;18.08;90.61;98697.03;105649;1251;74343;-26
2023/09/20 05:44:26;;;;;;;3.60;2.80;;;;;;;17.85;91.51;98702.15;105557;1253;72738;-26
2023/09/20 05:46:53;;;;;;;4.10;3.20;;;;;;;18.06;91.57;98699.41;105582;1255;61134;-26
2023/09/20 05:49:22;;;;;;;2.70;2.20;;;;;;;18.21;90.68;98699.42;105733;1254;61153;-26
2023/09/20 05:51:52;;;;;;;4.60;3.50;;;;;;;18.26;89.44;98701.23;105657;1251;74433;-27
2023/09/20 05:54:20;;;;;;;4.80;2.10;;;;;;;18.08;89.63;98708.25;105725;1254;74709;-26
2023/09/20 05:56:51;;;;;;;2.30;2.00;;;;;;;17.94;91.06;98709.90;105549;1255;72603;-26
2023/09/20 05:59:18;;;;;;;3.20;2.10;;;;;;;18.28;90.44;98712.64;105571;1257;61043;-26
2023/09/20 06:01:45;;;;;;;2.60;2.30;;;;;;;18.41;89.01;98709.13;105731;1254;61147;-27
2023/09/20 06:04:13;;;;;;;4.20;2.30;;;;;;;18.23;89.38;98709.98;105865;1251;72754;-26
2023/09/20 06:06:40;;;;;;;1.70;1.60;;;;;;;18.00;90.60;98710.64;105831;1258;73314;-26
2023/09/20 06:09:08;;;;;;;2.00;1.60;;;;;;;18.32;90.25;98713.95;105945;1251;72325;-26
2023/09/20 06:11:36;;;;;;;2.20;1.80;;;;;;;18.57;88.47;98715.50;105763;1255;61147;-26
2023/09/20 06:14:05;;;;;;;2.20;2.00;;;;;;;18.50;88.42;98717.86;105708;1254;61119;-26
2023/09/20 06:16:32;;;;;;;2.70;2.00;;;;;;;18.29;89.00;98722.34;105703;1251;73840;-26
2023/09/20 06:18:59;;;;;;;1.20;1.00;;;;;;;18.09;90.37;98728.66;105563;1257;74330;-27
2023/09/20 06:21:34;;;;;;;1.20;1.10;;;;;;;18.39;89.82;98727.29;105647;1254;72441;-26
2023/09/20 06:24:02;;;;;;;1.70;1.30;;;;;;;18.58;88.22;98730.89;105736;1251;61132;-27
2023/09/20 06:26:31;;;;;;;1.30;1.10;;;;;;;18.51;87.90;98736.05;105732;1254;61199;-26
2023/09/20 06:28:59;;;;;;;1.60;1.50;;;;;;;18.27;88.67;98737.12;105896;1251;73837;-26
2023/09/20 06:31:26;;;;;;;0.90;0.90;;;;;;;18.03;90.14;98743.45;105748;1254;74130;-26
2023/09/20 06:33:53;;;;;;;2.70;0.90;;;;;;;18.31;89.97;98747.95;105869;1251;72488;-27
2023/09/20 06:36:20;;;;;;;1.90;1.80;;;;;;;18.49;88.57;98750.09;105748;1253;61158;-26
2023/09/20 06:38:48;;;;;;;1.70;1.30;;;;;;;18.37;88.64;98758.70;105685;1254;61215;-26
2023/09/20 06:41:15;;;;;;;2.20;1.10;;;;;;;18.15;89.81;98766.12;105559;1251;73842;-26
2023/09/20 06:43:43;;;;;;;0.80;0.80;;;;;;;17.98;90.95;98772.98;105560;1257;74319;-26
2023/09/20 06:46:10;;;;;;;1.30;1.20;;;;;;;18.27;90.36;98773.04;105540;1250;72925;-27
2023/09/20 06:48:38;;;;;;;1.90;1.50;;;;;;;18.50;88.59;98776.44;105647;1256;61103;-27
2023/09/20 06:51:06;;;;;;;1.90;1.70;;;;;;;18.29;88.95;98781.91;105700;1255;61160;-27
2023/09/20 06:53:33;;;;;;;2.80;2.50;;;;;;;18.18;89.97;98789.38;105708;1251;73809;-26
2023/09/20 06:56:00;;;;;;;2.10;1.70;;;;;;;18.01;91.26;98791.29;105731;1254;74782;-26
2023/09/20 06:58:28;;;;;;;2.20;2.00;;;;;;;18.36;90.66;98798.09;105740;1251;71464;-27
2023/09/20 07:00:55;;;;;;;3.30;3.00;;;;;;;18.59;88.73;98798.64;105659;1255;61015;-27
2023/09/20 07:03:23;;;;;;;3.30;3.00;;;;;;;18.49;88.51;98802.41;105537;1258;61125;-27
2023/09/20 07:05:51;;;;;;;3.50;3.10;;;;;;;18.38;89.28;98804.62;105610;1250;73510;-27
2023/09/20 07:08:21;;;;;;;8.20;3.00;;;;;;;18.24;89.59;98806.40;105683;1251;74391;-27
2023/09/20 07:10:50;;;;;;;5.50;3.70;;;;;;;18.42;88.93;98813.83;105677;1254;73298;-27
2023/09/20 07:13:19;;;;;;;5.50;4.10;;;;;;;18.49;87.43;98812.66;105556;1257;61169;-27
2023/09/20 07:15:47;;;;;;;4.70;4.30;;;;;;;18.45;87.99;98818.87;105520;1251;61228;-28
2023/09/20 07:18:17;;;;;;;6.00;4.30;;;;;;;18.21;88.72;98819.33;105380;1260;73907;-27
2023/09/20 07:20:44;;;;;;;5.50;3.80;;;;;;;18.13;89.63;98822.34;105722;1254;74327;-27
2023/09/20 07:23:15;;;;;;;7.20;5.30;;;;;;;18.48;88.49;98821.30;105626;1254;73218;-27
2023/09/20 07:25:43;;;;;;;9.10;6.60;;;;;;;18.53;87.07;98822.30;105829;1251;61141;-27
2023/09/20 07:28:11;;;;;;;9.10;7.10;;;;;;;18.36;87.86;98821.05;105966;1251;61113;-26
2023/09/20 07:30:44;;;;;;;6.60;5.10;;;;;;;18.21;89.19;98821.36;105911;1251;73874;-26
2023/09/20 07:33:12;;;;;;;;;;;;;;;18.44;88.55;98825.30;105838;1254;73180;-26
2023/09/20 07:35:47;;;;;;;10.60;8.20;;;;;;;18.65;87.14;98832.02;105628;1254;71435;-24
2023/09/20 07:38:36;;;;;;;12.50;8.00;;;;;;;18.47;87.67;98834.99;105556;1253;61142;-24
2023/09/20 07:41:12;;;;;;;12.50;7.40;;;;;;;18.37;88.55;98838.75;105518;1257;61189;-24
2023/09/20 07:43:43;;;;;;;9.50;7.70;;;;;;;18.45;88.83;98840.64;105514;1254;72717;-24
2023/09/20 07:46:13;;;;;;;13.10;8.50;;;;;;;18.70;86.27;98835.45;105614;1250;74335;-24
2023/09/20 07:48:50;;;;;;;10.30;8.40;;;;;;;18.73;85.88;98838.38;105675;1257;73471;-24
2023/09/20 07:51:24;;;;;;;13.10;9.10;;;;;;;18.47;86.45;98839.51;105792;1251;61053;-24
2023/09/20 07:53:54;;;;;;;11.00;8.50;;;;;;;18.38;87.68;98840.38;105560;1254;61629;-24
2023/09/20 07:56:23;;;;;;;11.50;10.20;;;;;;;18.69;86.54;98841.65;105578;1253;73611;-24
2023/09/20 07:58:53;;;;;;;15.60;10.10;;;;;;;18.87;85.78;98840.13;105727;1251;74217;-24
2023/09/20 08:01:21;;;;;;;14.70;11.40;;;;;;;18.83;85.89;98845.45;105768;1251;71458;-24
2023/09/20 08:03:52;;;;;;;14.40;11.90;;;;;;;18.62;86.90;98844.60;105794;1253;61020;-24
2023/09/20 08:06:23;;;;;;;;;;;;;;;18.55;87.87;98846.02;105667;1254;61910;-24
2023/09/20 08:08:50;;;;;;;12.60;10.10;;;;;;;18.86;86.93;98849.05;105735;1254;73632;-24
2023/09/20 08:11:17;;;;;;;13.80;9.90;;;;;;;19.05;85.72;98847.80;105684;1255;75859;-23
2023/09/20 08:13:52;;;;;;;14.30;12.80;;;;;;;18.97;85.59;98848.02;105677;1251;72419;-24
2023/09/20 08:16:20;;;;;;;12.30;11.00;;;;;;;18.70;86.63;98849.77;105652;1251;61049;-23
2023/09/20 08:21:50;;;;;;;13.00;10.10;;;;;;;19.02;84.84;98848.77;105054;1261;73922;-23
2023/09/20 09:00:31;;;;;;;8.70;4.00;;;;;;;19.40;75.17;98863.17;105765;1253;61131;-23
2023/09/20 09:02:59;;;;;;;6.80;4.10;;;;;;;19.87;73.55;98860.96;105690;1251;73814;-22
2023/09/20 09:05:29;;;;;;;6.20;3.50;;;;;;;20.10;70.43;98856.50;105629;1251;75894;-22
2023/09/20 09:07:58;;;;;;;5.50;3.40;;;;;;;20.01;70.52;98871.14;105647;1251;72907;-22
2023/09/20 09:10:26;;;;;;;8.20;4.30;;;;;;;19.91;70.56;98868.95;105660;1258;61188;-22
2023/09/20 09:12:53;;;;;;;3.50;3.10;;;;;;;19.95;70.07;98873.59;105924;1256;61182;-22
2023/09/20 09:15:21;;;;;;;4.30;3.00;;;;;;;20.06;69.54;98874.36;105927;1250;73763;-22
2023/09/20 09:17:48;;;;;;;5.60;3.40;;;;;;;20.22;68.62;98874.86;105852;1257;74906;-22
2023/09/20 09:20:16;;;;;;;6.40;3.30;;;;;;;20.07;68.97;98880.07;105899;1254;71645;-22
2023/09/20 09:22:44;;;;;;;5.50;3.20;;;;;;;20.07;68.85;98884.25;105598;1254;61146;-22
2023/09/20 09:25:18;;;;;;;7.50;3.70;;;;;;;20.05;67.18;98873.95;105674;1255;61150;-22
2023/09/20 09:27:45;;;;;;;6.30;3.10;;;;;;;19.73;68.09;98886.65;105461;1251;75686;-22
2023/09/20 09:30:15;;;;;;;3.40;2.80;;;;;;;19.71;68.39;98893.09;105750;1254;74438;-22
2023/09/20 09:32:43;;;;;;;5.40;3.60;;;;;;;19.57;66.90;98886.89;105514;1251;73740;-22
2023/09/20 09:35:12;;;;;;;5.30;3.00;;;;;;;19.44;68.08;98889.13;105580;1251;61118;-22
2023/09/20 09:37:40;;;;;;;3.80;2.60;;;;;;;19.41;67.78;98891.44;105663;1252;61712;-21
2023/09/20 09:40:18;;;;;;;5.80;3.20;;;;;;;19.49;68.68;98897.30;105699;1251;75256;-22
2023/09/20 09:42:45;;;;;;;5.00;2.70;;;;;;;19.55;67.09;98890.05;105678;1257;75932;-22
2023/09/20 09:45:12;;;;;;;5.60;2.60;;;;;;;19.64;67.02;98897.91;105667;1253;74316;-22
2023/09/20 09:47:41;;;;;;;4.40;2.60;;;;;;;19.75;65.90;98902.38;105701;1257;61197;-22
2023/09/20 09:50:09;;;;;;;5.30;2.60;;;;;;;19.88;65.67;98900.73;105701;1251;61071;-22
2023/09/20 09:52:38;;;;;;;8.10;2.00;;;;;;;20.03;63.65;98902.76;105571;1251;75487;-22
2023/09/20 09:55:07;;;;;;;4.20;2.30;;;;;;;20.08;62.50;98908.83;105576;1257;76004;-23
2023/09/20 09:57:34;;;;;;;5.00;2.40;;;;;;;20.16;61.94;98909.09;105570;1257;70893;-22
2023/09/20 10:00:05;;;;;;;5.50;2.80;;;;;;;20.20;62.63;98913.52;105668;1250;61075;-22
2023/09/20 10:02:40;;;;;;;4.10;2.60;;;;;;;20.24;62.65;98910.38;105492;1257;61170;-22
2023/09/20 10:05:08;;;;;;;9.80;2.90;;;;;;;20.31;62.42;98914.66;105604;1257;72593;-23
2023/09/20 10:07:37;;;;;;;6.60;2.50;;;;;;;20.25;61.65;98917.45;105508;1251;76211;-23
2023/09/20 10:10:12;;;;;;;7.20;2.70;;;;;;;20.18;60.99;98916.02;105506;1254;72657;-23
2023/09/20 10:12:40;;;;;;;2.60;2.10;;;;;;;20.22;59.78;98918.62;105514;1253;61146;-23
2023/09/20 10:15:07;;;;;;;4.70;2.30;;;;;;;20.34;60.65;98927.69;105533;1253;62408;-23
2023/09/20 10:17:56;;;;;;;5.00;2.70;;;;;;;20.47;59.50;98923.56;105604;1250;75283;-23
2023/09/20 10:20:25;;;;;;;5.20;2.30;;;;;;;20.52;59.60;98924.73;105948;1257;76014;-23
2023/09/20 10:22:54;;;;;;;8.10;2.60;;;;;;;20.63;58.88;98926.89;105574;1250;74164;-23
2023/09/20 10:25:36;;;;;;;4.30;1.90;;;;;;;20.71;57.63;98932.14;105706;1250;61842;-23
2023/09/20 10:28:05;;;;;;;2.60;2.00;;;;;;;20.78;55.96;98926.13;105748;1250;61200;-23
2023/09/20 10:30:34;;;;;;;5.10;2.20;;;;;;;20.73;55.62;98933.91;105734;1251;75655;-23
2023/09/20 10:33:04;;;;;;;2.90;2.00;;;;;;;20.80;55.44;98933.27;105758;1251;76196;-23
2023/09/20 10:35:33;;;;;;;4.10;1.90;;;;;;;20.92;54.38;98927.65;105669;1251;74131;-23
2023/09/20 10:38:11;;;;;;;3.50;2.10;;;;;;;21.06;53.65;98930.52;105555;1253;62158;-23
2023/09/20 10:40:45;;;;;;;5.10;2.10;;;;;;;21.25;52.60;98927.55;105604;1257;61133;-23
2023/09/20 10:43:16;;;;;;;4.20;2.20;;;;;;;21.35;50.36;98929.54;105798;1250;73804;-23
2023/09/20 10:45:50;;;;;;;3.20;2.10;;;;;;;21.28;49.41;98929.19;105690;1257;74519;-23
2023/09/20 10:48:27;;;;;;;4.20;2.20;;;;;;;21.02;49.70;98935.31;105662;1251;73116;-23
2023/09/20 10:50:57;;;;;;;4.50;1.90;;;;;;;21.09;50.06;98930.70;105716;1251;61142;-23
2023/09/20 10:53:44;;;;;;;3.30;2.00;;;;;;;21.20;49.25;98926.20;105688;1252;62171;-23
2023/09/20 10:56:12;;;;;;;3.10;2.10;;;;;;;21.44;48.78;98926.60;105893;1251;75475;-23
2023/09/20 10:58:42;;;;;;;6.30;2.20;;;;;;;21.47;47.63;98925.34;105430;1260;74329;-23
2023/09/20 11:01:10;;;;;;;3.70;2.40;;;;;;;21.87;46.69;98924.52;105558;1250;71647;-23
2023/09/20 11:03:37;;;;;;;3.60;2.50;;;;;;;22.15;45.96;98920.35;105553;1254;61836;-22
2023/09/20 11:06:05;;;;;;;8.80;2.30;;;;;;;22.22;45.07;98916.42;105440;1259;61703;-22
2023/09/20 11:08:32;;;;;;;4.80;2.30;;;;;;;22.33;44.89;98912.51;105807;1251;73556;-23
2023/09/20 11:11:00;;;;;;;3.50;2.30;;;;;;;22.74;44.08;98914.51;105677;1250;75723;-22
2023/09/20 11:13:28;;;;;;;3.60;2.50;;;;;;;23.10;42.46;98910.35;105723;1250;72612;-23
2023/09/20 11:15:55;;;;;;;3.60;2.30;;;;;;;23.30;42.25;98911.39;105605;1251;61971;-22
2023/09/20 11:18:22;;;;;;;2.50;1.80;;;;;;;23.41;41.72;98911.29;105829;1254;61144;-22
2023/09/20 11:20:49;;;;;;;3.70;2.30;;;;;;;23.20;40.80;98909.17;105905;1250;75603;-22
2023/09/20 11:23:17;;;;;;;3.40;2.30;;;;;;;22.99;41.21;98909.98;105696;1254;74602;-23
2023/09/20 11:25:46;;;;;;;3.00;2.20;;;;;;;22.99;41.32;98905.60;105416;1250;73186;-23
2023/09/20 11:28:14;;;;;;;10.60;2.50;;;;;;;22.92;40.73;98906.13;105518;1250;61157;-22
2023/09/20 11:30:43;;;;;;;8.20;2.60;;;;;;;22.79;40.38;98904.98;105700;1257;61997;-22
2023/09/20 11:33:27;;;;;;;3.20;2.10;;;;;;;22.95;38.98;98907.30;105646;1250;75699;-22
2023/09/20 11:35:54;;;;;;;;;;;;;;;23.17;39.45;98906.80;105568;1257;73427;-23
2023/09/20 11:38:21;;;;;;;4.70;2.30;;;;;;;23.06;38.83;98898.55;105719;1250;74567;-22
2023/09/20 11:40:51;;;;;;;6.50;2.30;;;;;;;22.89;39.26;98902.20;105678;1251;62252;-22
2023/09/20 11:43:20;;;;;;;4.80;2.40;;;;;;;23.02;39.25;98903.67;105608;1251;61165;-23
2023/09/20 11:45:53;;;;;;;3.80;2.10;;;;;;;23.06;39.80;98901.13;105653;1251;74467;-22
2023/09/20 11:48:28;;;;;;;3.90;2.40;;;;;;;23.10;40.20;98897.33;105706;1250;76310;-23
2023/09/20 11:50:56;;;;;;;5.10;2.00;;;;;;;23.09;40.00;98896.92;105716;1251;72383;-22
2023/09/20 11:53:24;;;;;;;3.90;2.10;;;;;;;23.09;38.85;98898.17;105595;1253;62184;-23
2023/09/20 11:55:54;;;;;;;4.60;2.30;;;;;;;22.90;37.48;98901.48;105536;1250;61726;-22
2023/09/20 11:58:21;;;;;;;2.90;2.00;;;;;;;22.88;37.27;98905.41;105521;1250;73775;-22
2023/09/20 12:00:49;;;;;;;3.50;2.10;;;;;;;22.88;38.26;98909.48;105588;1257;76213;-22
2023/09/20 12:03:17;;;;;;;4.60;2.20;;;;;;;22.95;37.81;98909.80;105680;1250;74028;-22
2023/09/20 12:05:45;;;;;;;3.40;2.10;;;;;;;22.90;37.65;98912.42;105604;1257;61436;-23
2023/09/20 12:08:12;;;;;;;7.30;2.50;;;;;;;22.85;37.32;98909.98;105682;1254;61179;-22
2023/09/20 12:10:40;;;;;;;3.80;2.00;;;;;;;23.02;37.91;98916.38;105857;1250;75759;-22
2023/09/20 12:13:07;;;;;;;3.60;1.90;;;;;;;23.09;37.15;98918.27;105785;1251;75880;-23